Time;durP1;ratioP1;P1;durP2;ratioP2;P2;SDS_P1;SDS_P2;PMS_P1;PMS_P2;Temp;Humidity;BMP_temperature;BMP_pressure;BME280_temperature;BME280_humidity;BME280_pressure;Samples;Min_cycle;Max_cycle;Signal;HPM_P1;HPM_P2
2021/01/15 00:01:05;;;;;;;14.52;8.52;;;1.70;88.20;;;;;;4878003;29;20049;-75
2021/01/15 00:03:35;;;;;;;10.48;7.68;;;1.80;88.30;;;;;;4877827;29;20033;-69
2021/01/15 00:06:05;;;;;;;11.63;8.07;;;1.80;88.00;;;;;;4878579;29;20506;-75
2021/01/15 00:08:37;;;;;;;10.20;7.65;;;1.80;87.70;;;;;;4878591;29;20044;-74
2021/01/15 00:11:03;;;;;;;;;;;1.90;87.50;;;;;;4878195;29;20058;-70
2021/01/15 00:13:28;;;;;;;12.82;8.13;;;1.90;87.00;;;;;;4861897;29;19915;-71
2021/01/15 00:15:54;;;;;;;10.13;7.78;;;2.00;87.00;;;;;;4878225;29;20104;-70
2021/01/15 00:18:19;;;;;;;11.57;8.48;;;2.10;86.80;;;;;;4877458;29;20037;-68
2021/01/15 00:20:45;;;;;;;11.23;7.88;;;2.10;86.20;;;;;;4878050;29;20041;-71
2021/01/15 00:23:11;;;;;;;11.40;8.52;;;2.20;85.40;;;;;;4877953;29;20025;-75
2021/01/15 00:25:37;;;;;;;12.32;7.90;;;2.20;85.20;;;;;;4877899;29;20032;-77
2021/01/15 00:28:02;;;;;;;11.40;7.63;;;2.30;85.00;;;;;;4861457;29;20026;-75
2021/01/15 00:30:28;;;;;;;12.00;8.95;;;2.40;84.80;;;;;;4860981;29;20039;-70
2021/01/15 00:32:53;;;;;;;11.63;7.70;;;2.40;84.60;;;;;;4877801;29;20510;-76
2021/01/15 00:35:19;;;;;;;12.45;8.00;;;2.50;84.30;;;;;;4877803;29;20460;-77
2021/01/15 00:37:44;;;;;;;10.50;7.97;;;2.50;83.90;;;;;;4877689;29;20022;-72
2021/01/15 00:40:11;;;;;;;10.15;7.47;;;2.50;83.30;;;;;;4877781;29;20450;-71
2021/01/15 00:42:36;;;;;;;13.60;8.40;;;2.60;82.80;;;;;;4878102;29;20485;-69
2021/01/15 00:45:02;;;;;;;10.07;8.07;;;2.60;82.60;;;;;;4877336;29;20033;-72
2021/01/15 00:47:31;;;;;;;8.23;6.90;;;2.70;82.40;;;;;;4861830;29;20442;-70
2021/01/15 00:49:58;;;;;;;9.57;7.07;;;2.70;82.10;;;;;;4881730;29;20057;-70
2021/01/15 00:52:23;;;;;;;9.88;7.38;;;2.70;81.90;;;;;;4880721;29;20040;-73
2021/01/15 00:54:49;;;;;;;10.57;7.88;;;2.70;81.80;;;;;;4864914;29;20394;-71
2021/01/15 00:57:15;;;;;;;13.23;7.32;;;2.80;81.60;;;;;;4864630;29;20115;-70
2021/01/15 00:59:41;;;;;;;10.55;7.18;;;2.80;81.60;;;;;;4881011;29;20124;-74
2021/01/15 01:02:06;;;;;;;8.98;6.93;;;2.80;80.90;;;;;;4881049;29;20025;-77
2021/01/15 01:04:32;;;;;;;10.35;7.50;;;2.80;80.00;;;;;;4881367;29;20048;-73
2021/01/15 01:06:57;;;;;;;7.60;5.78;;;2.80;79.90;;;;;;4880757;29;20069;-73
2021/01/15 01:09:24;;;;;;;10.43;6.90;;;2.80;80.20;;;;;;4881289;29;20029;-77
2021/01/15 01:11:50;;;;;;;8.23;6.57;;;2.80;79.70;;;;;;4881495;29;20065;-74
2021/01/15 01:14:15;;;;;;;7.53;6.45;;;2.80;79.30;;;;;;4880284;29;20073;-77
2021/01/15 01:16:41;;;;;;;12.25;6.38;;;2.70;79.00;;;;;;4881348;29;20133;-76
2021/01/15 01:19:06;;;;;;;10.98;6.70;;;2.70;79.50;;;;;;4880621;29;20024;-72
2021/01/15 01:21:32;;;;;;;10.13;7.40;;;2.70;79.90;;;;;;4880758;29;20386;-77
2021/01/15 01:23:58;;;;;;;11.40;7.07;;;2.60;79.70;;;;;;4881071;29;20032;-71
2021/01/15 01:26:24;;;;;;;12.75;7.70;;;2.60;80.30;;;;;;4864176;29;20099;-76
2021/01/15 01:28:49;;;;;;;9.80;7.85;;;2.70;80.60;;;;;;4880610;29;20033;-80
2021/01/15 01:31:16;;;;;;;11.40;7.85;;;2.60;80.80;;;;;;4880774;29;20033;-74
2021/01/15 01:33:42;;;;;;;11.98;8.32;;;2.60;81.00;;;;;;4881025;29;20029;-73
2021/01/15 01:36:09;;;;;;;9.73;7.43;;;2.60;81.40;;;;;;4879781;29;20064;-74
2021/01/15 01:38:37;;;;;;;9.52;7.65;;;2.60;81.50;;;;;;4880919;29;20111;-73
2021/01/15 01:41:03;;;;;;;13.60;8.43;;;2.60;81.70;;;;;;4880156;29;20085;-80
2021/01/15 01:43:28;;;;;;;13.05;8.93;;;2.50;82.00;;;;;;4863900;29;20021;-81
2021/01/15 01:45:57;;;;;;;11.00;8.05;;;2.50;82.10;;;;;;4880690;29;20032;-77
2021/01/15 01:48:23;;;;;;;11.25;7.60;;;2.50;82.80;;;;;;4879747;29;20038;-75
2021/01/15 01:50:50;;;;;;;10.93;7.72;;;2.50;83.00;;;;;;4880732;29;20466;-71
2021/01/15 01:53:18;;;;;;;13.77;8.05;;;2.50;83.10;;;;;;4880236;29;20032;-73
2021/01/15 01:55:44;;;;;;;12.93;8.57;;;2.50;83.30;;;;;;4863362;29;20125;-87
2021/01/15 01:58:13;;;;;;;12.38;8.52;;;2.50;83.50;;;;;;4879907;29;20080;-84
2021/01/15 02:00:40;;;;;;;11.38;8.10;;;2.50;83.60;;;;;;4864869;29;20101;-71
2021/01/15 02:03:06;;;;;;;13.23;8.48;;;2.40;83.50;;;;;;4879360;29;20105;-71
2021/01/15 02:05:31;;;;;;;10.82;7.93;;;2.50;83.60;;;;;;4880654;29;20107;-76
2021/01/15 02:07:57;;;;;;;11.48;8.38;;;2.50;83.90;;;;;;4880567;29;20025;-86
2021/01/15 02:10:41;;;;;;;9.85;7.85;;;2.50;84.00;;;;;;4879749;29;20446;-85
2021/01/15 02:13:31;;;;;;;12.90;9.27;;;2.50;83.80;;;;;;4880085;29;20080;-86
2021/01/15 02:16:06;;;;;;;12.05;8.50;;;2.50;83.70;;;;;;4863774;29;20059;-86
2021/01/15 02:18:51;;;;;;;12.57;8.82;;;2.50;83.60;;;;;;4863802;29;20032;-84
2021/01/15 02:21:50;;;;;;;12.52;8.80;;;2.50;83.70;;;;;;4879907;29;20037;-72
2021/01/15 02:24:33;;;;;;;15.60;9.02;;;2.50;83.80;;;;;;4879081;29;20037;-71
2021/01/15 02:27:20;;;;;;;13.23;8.60;;;2.60;84.10;;;;;;4880024;29;20033;-70
2021/01/15 02:30:07;;;;;;;11.07;8.43;;;2.50;83.80;;;;;;4880164;29;20025;-72
2021/01/15 02:32:43;;;;;;;14.25;8.73;;;2.60;84.10;;;;;;4863439;29;20085;-70
2021/01/15 02:35:32;;;;;;;12.00;9.10;;;2.60;84.00;;;;;;4879810;29;20029;-70
2021/01/15 02:38:07;;;;;;;11.77;9.57;;;2.60;84.40;;;;;;4879423;29;20037;-69
2021/01/15 02:40:39;;;;;;;10.77;8.85;;;2.60;84.30;;;;;;4879935;29;20033;-70
2021/01/15 02:43:06;;;;;;;10.30;8.32;;;2.60;84.30;;;;;;4879438;29;20040;-74
2021/01/15 02:45:34;;;;;;;11.13;8.18;;;2.50;84.40;;;;;;4879353;29;20497;-70
2021/01/15 02:48:02;;;;;;;11.57;8.77;;;2.50;84.50;;;;;;4879652;29;20112;-71
2021/01/15 02:50:28;;;;;;;9.75;8.70;;;2.50;85.10;;;;;;4879588;29;20029;-71
2021/01/15 02:52:55;;;;;;;12.25;9.45;;;2.60;85.20;;;;;;4879114;29;20036;-73
2021/01/15 02:55:21;;;;;;;12.45;9.15;;;2.50;84.80;;;;;;4879384;29;20025;-69
2021/01/15 02:57:47;;;;;;;12.93;8.90;;;2.50;85.20;;;;;;4862932;29;20119;-70
2021/01/15 03:00:16;;;;;;;11.27;8.55;;;2.50;85.20;;;;;;4878497;29;20116;-76
2021/01/15 03:03:13;;;;;;;10.20;8.07;;;2.40;85.30;;;;;;4862976;29;20021;-72
2021/01/15 03:06:09;;;;;;;17.00;9.75;;;2.50;85.70;;;;;;4879059;29;20065;-76
2021/01/15 03:08:36;;;;;;;12.23;9.07;;;2.40;85.70;;;;;;4812894;29;20163;-72
2021/01/15 03:11:04;;;;;;;16.15;10.18;;;2.40;86.00;;;;;;4878619;29;20037;-70
2021/01/15 03:13:30;;;;;;;12.60;9.02;;;2.40;86.40;;;;;;4878623;29;20029;-71
2021/01/15 03:15:59;;;;;;;16.33;8.68;;;2.30;86.50;;;;;;4879351;29;20378;-74
2021/01/15 03:18:26;;;;;;;12.25;9.48;;;2.30;86.70;;;;;;4878954;29;20235;-75
2021/01/15 03:20:52;;;;;;;15.32;11.20;;;2.40;87.40;;;;;;4878454;29;20048;-80
2021/01/15 03:23:18;;;;;;;14.05;9.02;;;2.40;87.90;;;;;;4878861;29;20025;-70
2021/01/15 03:25:43;;;;;;;16.65;10.38;;;2.40;88.40;;;;;;4879218;29;20033;-70
2021/01/15 03:28:09;;;;;;;12.77;10.20;;;2.40;88.50;;;;;;4878161;29;20028;-73
2021/01/15 03:30:35;;;;;;;11.40;9.52;;;2.40;88.70;;;;;;4879108;29;20093;-70
2021/01/15 03:33:03;;;;;;;14.82;10.55;;;2.40;88.80;;;;;;4879126;29;20033;-73
2021/01/15 03:35:30;;;;;;;12.55;10.05;;;2.40;89.10;;;;;;4878176;29;20046;-70
2021/01/15 03:38:07;;;;;;;14.15;10.85;;;2.40;89.00;;;;;;4878781;29;20060;-69
2021/01/15 03:40:36;;;;;;;14.15;10.35;;;2.40;89.20;;;;;;4878254;29;20047;-70
2021/01/15 03:43:21;;;;;;;14.57;10.82;;;2.40;89.30;;;;;;4878696;29;20029;-72
2021/01/15 03:45:51;;;;;;;12.52;9.82;;;2.40;89.70;;;;;;4878728;29;20402;-69
2021/01/15 03:48:20;;;;;;;14.30;10.63;;;2.40;89.90;;;;;;4878351;29;20043;-69
2021/01/15 03:50:46;;;;;;;11.70;9.85;;;2.40;90.10;;;;;;4878725;29;20033;-69
2021/01/15 03:53:15;;;;;;;16.15;10.63;;;2.40;90.00;;;;;;4878257;29;20504;-69
2021/01/15 03:55:41;;;;;;;15.07;11.20;;;2.40;90.20;;;;;;4878240;29;20061;-73
2021/01/15 03:58:07;;;;;;;18.80;12.05;;;2.40;90.20;;;;;;4878193;29;20080;-69
2021/01/15 04:00:32;;;;;;;14.00;9.80;;;2.40;90.10;;;;;;4878501;29;20032;-69
2021/01/15 04:02:58;;;;;;;16.35;11.38;;;2.40;90.10;;;;;;4877978;29;20058;-79
2021/01/15 04:05:23;;;;;;;14.35;11.00;;;2.30;90.20;;;;;;4878396;29;20033;-77
2021/01/15 04:07:49;;;;;;;16.33;11.40;;;2.30;90.40;;;;;;4862010;29;20513;-72
2021/01/15 04:10:16;;;;;;;15.27;11.25;;;2.40;90.50;;;;;;4877525;29;20037;-70
2021/01/15 04:12:42;;;;;;;14.48;11.27;;;2.30;90.40;;;;;;4878491;29;20040;-74
2021/01/15 04:15:15;;;;;;;15.32;11.40;;;2.30;90.40;;;;;;4877955;29;20029;-69
2021/01/15 04:17:41;;;;;;;18.90;11.77;;;2.40;90.40;;;;;;4878123;29;20028;-70
2021/01/15 04:20:10;;;;;;;12.98;11.15;;;2.40;90.30;;;;;;4861359;29;20036;-72
2021/01/15 04:22:46;;;;;;;16.95;11.23;;;2.40;90.30;;;;;;4882114;29;20021;-70
2021/01/15 04:25:13;;;;;;;16.52;11.63;;;2.40;90.30;;;;;;4884341;29;20037;-71
2021/01/15 04:27:40;;;;;;;14.38;12.07;;;2.50;90.30;;;;;;4884678;29;20040;-74
2021/01/15 04:30:10;;;;;;;16.05;11.68;;;2.50;90.30;;;;;;4883377;29;20108;-70
2021/01/15 04:32:46;;;;;;;15.77;11.10;;;2.40;90.30;;;;;;4884686;29;20033;-73
2021/01/15 04:35:13;;;;;;;14.02;10.65;;;2.40;90.30;;;;;;4883878;29;20053;-73
2021/01/15 04:37:38;;;;;;;15.50;10.75;;;2.50;90.30;;;;;;4884308;29;20033;-69
2021/01/15 04:40:04;;;;;;;16.77;11.00;;;2.40;90.20;;;;;;4885285;29;20088;-70
2021/01/15 04:42:33;;;;;;;15.32;9.85;;;2.40;90.40;;;;;;4868813;29;20057;-72
2021/01/15 04:44:59;;;;;;;16.45;11.60;;;2.40;90.30;;;;;;4884928;29;20028;-71
2021/01/15 04:47:26;;;;;;;14.68;10.93;;;2.40;90.20;;;;;;4884850;29;20037;-72
2021/01/15 04:49:52;;;;;;;15.82;11.55;;;2.40;90.30;;;;;;4885190;29;20036;-74
2021/01/15 04:52:19;;;;;;;13.95;10.82;;;2.40;90.30;;;;;;4867297;29;20469;-72
2021/01/15 04:54:54;;;;;;;14.32;11.82;;;2.40;90.30;;;;;;4884636;29;20055;-71
2021/01/15 04:57:20;;;;;;;15.50;11.45;;;2.40;90.40;;;;;;4884939;29;20029;-69
2021/01/15 04:59:47;;;;;;;14.48;10.75;;;2.40;90.40;;;;;;4868469;29;20037;-69
2021/01/15 05:02:17;;;;;;;18.02;12.38;;;2.30;90.40;;;;;;4885278;29;20367;-70
2021/01/15 05:04:43;;;;;;;13.50;10.65;;;2.30;90.50;;;;;;4884422;29;20048;-70
2021/01/15 05:07:11;;;;;;;13.85;10.80;;;2.30;90.50;;;;;;4884027;29;20056;-80
2021/01/15 05:09:45;;;;;;;17.40;11.65;;;2.30;90.50;;;;;;4888331;29;20489;-73
2021/01/15 05:12:15;;;;;;;15.25;12.25;;;2.30;90.60;;;;;;4872431;29;20542;-76
2021/01/15 05:14:48;;;;;;;14.73;12.10;;;2.30;90.50;;;;;;4892191;29;20082;-68
2021/01/15 05:17:15;;;;;;;19.30;11.82;;;2.40;90.60;;;;;;4887424;29;20029;-72
2021/01/15 05:19:42;;;;;;;18.25;12.27;;;2.40;90.60;;;;;;4886853;29;20473;-67
2021/01/15 05:22:09;;;;;;;15.85;11.60;;;2.40;90.60;;;;;;4885721;29;20057;-70
2021/01/15 05:24:36;;;;;;;14.30;11.38;;;2.50;90.60;;;;;;4884879;29;20040;-69
2021/01/15 05:27:38;;;;;;;15.27;11.85;;;2.50;90.50;;;;;;4884017;29;20041;-74
2021/01/15 05:30:15;;;;;;;13.60;10.95;;;2.50;90.50;;;;;;4884280;29;20048;-69
2021/01/15 05:32:41;;;;;;;16.80;11.95;;;2.50;90.40;;;;;;4884516;29;20076;-74
2021/01/15 05:35:07;;;;;;;18.48;13.23;;;2.40;90.50;;;;;;4886318;29;20031;-68
2021/01/15 05:37:33;;;;;;;14.60;11.00;;;2.40;90.60;;;;;;4899982;29;20477;-68
2021/01/15 05:39:59;;;;;;;17.40;12.48;;;2.40;90.80;;;;;;4899155;29;20429;-71
2021/01/15 05:42:25;;;;;;;20.80;12.52;;;2.40;90.80;;;;;;4888174;29;20032;-74
2021/01/15 05:44:50;;;;;;;14.48;10.65;;;2.40;90.90;;;;;;4886706;29;20470;-69
2021/01/15 05:47:16;;;;;;;21.10;14.73;;;2.40;91.20;;;;;;4863498;29;20059;-72
2021/01/15 05:49:57;;;;;;;19.15;12.65;;;2.50;90.80;;;;;;4899890;29;20020;-69
2021/01/15 05:52:23;;;;;;;20.05;12.73;;;2.40;90.90;;;;;;4899580;29;20031;-69
2021/01/15 05:54:54;;;;;;;17.33;12.68;;;2.40;90.80;;;;;;4863437;29;20371;-69
2021/01/15 05:57:26;;;;;;;19.95;13.20;;;2.40;90.90;;;;;;4888334;29;20025;-70
2021/01/15 05:59:52;;;;;;;;;;;2.40;91.00;;;;;;4899866;29;20100;-75
2021/01/15 06:02:17;;;;;;;17.42;12.88;;;2.40;91.10;;;;;;4882031;29;19959;-73
2021/01/15 06:04:43;;;;;;;16.58;12.10;;;2.40;91.00;;;;;;4899157;29;20032;-72
2021/01/15 06:07:09;;;;;;;15.95;12.00;;;2.40;91.00;;;;;;4898695;29;20028;-71
2021/01/15 06:09:36;;;;;;;19.20;13.68;;;2.40;91.00;;;;;;4898885;29;20056;-71
2021/01/15 06:12:08;;;;;;;17.65;12.77;;;2.40;91.10;;;;;;4899392;29;20092;-77
2021/01/15 06:14:35;;;;;;;19.63;13.85;;;2.40;91.10;;;;;;4882174;29;20507;-72
2021/01/15 06:17:02;;;;;;;17.20;13.07;;;2.40;91.10;;;;;;4898512;29;20025;-73
2021/01/15 06:19:47;;;;;;;18.33;13.90;;;2.40;91.10;;;;;;4898617;29;20493;-71
2021/01/15 06:22:32;;;;;;;20.17;14.70;;;2.40;91.20;;;;;;4898057;29;20092;-78
2021/01/15 06:25:30;;;;;;;18.48;13.85;;;2.50;91.50;;;;;;4882059;29;20382;-74
2021/01/15 06:28:01;;;;;;;22.40;14.30;;;2.50;91.20;;;;;;4898355;29;20033;-79
2021/01/15 06:30:37;;;;;;;23.17;13.93;;;2.50;91.10;;;;;;4881261;29;20075;-77
2021/01/15 06:33:13;;;;;;;17.95;13.63;;;2.60;91.10;;;;;;4898726;29;20028;-74
2021/01/15 06:35:41;;;;;;;19.17;14.13;;;2.60;91.10;;;;;;4898538;29;20052;-74
2021/01/15 06:38:10;;;;;;;18.75;14.35;;;2.60;91.00;;;;;;4897439;29;20032;-69
2021/01/15 06:40:40;;;;;;;21.02;15.80;;;2.60;91.10;;;;;;4898702;29;20043;-68
2021/01/15 06:43:10;;;;;;;19.08;14.10;;;2.60;91.20;;;;;;4898126;29;20351;-67
2021/01/15 06:45:50;;;;;;;22.15;13.70;;;2.70;91.50;;;;;;4880166;29;20033;-76
2021/01/15 06:48:18;;;;;;;19.77;15.45;;;2.70;91.10;;;;;;4897700;29;20085;-70
2021/01/15 06:50:56;;;;;;;19.48;14.38;;;2.70;91.10;;;;;;4898056;29;20040;-69
2021/01/15 06:53:55;;;;;;;18.38;14.30;;;2.70;91.10;;;;;;4897981;29;20024;-84
2021/01/15 06:56:27;;;;;;;20.50;15.27;;;2.80;91.10;;;;;;4881556;29;20076;-74
2021/01/15 06:58:58;;;;;;;20.45;14.38;;;2.80;91.10;;;;;;4898147;29;20031;-76
2021/01/15 07:01:43;;;;;;;19.20;15.32;;;2.80;91.00;;;;;;4897889;29;20393;-84
2021/01/15 07:04:28;;;;;;;20.35;15.25;;;2.70;91.10;;;;;;4898022;29;20043;-83
2021/01/15 07:07:12;;;;;;;19.50;14.20;;;2.80;91.20;;;;;;4897990;29;20025;-81
2021/01/15 07:09:40;;;;;;;22.98;17.13;;;2.70;91.10;;;;;;4881664;29;20024;-82
2021/01/15 07:12:09;;;;;;;18.10;14.25;;;2.70;91.10;;;;;;4896868;29;20031;-83
2021/01/15 07:14:44;;;;;;;24.85;16.75;;;2.70;91.10;;;;;;4898195;29;20036;-84
2021/01/15 07:17:26;;;;;;;22.13;17.25;;;2.80;91.20;;;;;;4897956;29;20485;-81
2021/01/15 07:20:00;;;;;;;;;;;2.80;91.20;;;;;;4897982;29;20472;-79
2021/01/15 07:22:34;;;;;;;24.25;16.83;;;2.80;91.10;;;;;;4897372;29;20316;-83
2021/01/15 07:25:02;;;;;;;92.93;19.42;;;2.80;91.10;;;;;;4897587;29;20024;-80
2021/01/15 07:27:28;;;;;;;20.77;15.75;;;2.70;91.20;;;;;;4893183;29;20033;-71
2021/01/15 07:29:54;;;;;;;23.55;16.42;;;2.80;91.20;;;;;;4885908;29;20033;-72
2021/01/15 07:32:26;;;;;;;21.67;16.73;;;2.70;91.20;;;;;;4891660;29;20060;-71
2021/01/15 07:34:56;;;;;;;23.83;17.58;;;2.70;91.40;;;;;;4892292;29;20061;-72
2021/01/15 07:37:27;;;;;;;23.55;17.35;;;2.70;91.40;;;;;;4887630;29;20049;-73
2021/01/15 07:40:14;;;;;;;22.27;16.42;;;2.70;91.50;;;;;;4890360;29;20374;-70
2021/01/15 07:42:57;;;;;;;819.80;59.25;;;2.70;91.70;;;;;;4878931;29;20021;-72
2021/01/15 07:45:25;;;;;;;24.42;17.58;;;2.70;91.70;;;;;;4886591;29;20031;-72
2021/01/15 07:47:52;;;;;;;24.02;17.90;;;2.70;91.80;;;;;;4879320;29;20486;-72
2021/01/15 07:50:42;;;;;;;23.65;16.85;;;2.70;91.70;;;;;;4896835;29;20035;-73
2021/01/15 07:53:19;;;;;;;22.67;17.75;;;2.70;91.70;;;;;;4885948;29;20028;-72
2021/01/15 07:55:55;;;;;;;24.85;18.17;;;2.70;91.50;;;;;;4896523;29;20025;-78
2021/01/15 07:58:42;;;;;;;24.50;17.73;;;2.80;91.70;;;;;;4896348;29;20382;-71
2021/01/15 08:01:16;;;;;;;22.63;17.60;;;2.90;91.70;;;;;;4895308;29;20519;-71
2021/01/15 08:03:52;;;;;;;23.27;16.98;;;2.90;91.60;;;;;;4897354;29;20028;-75
2021/01/15 08:06:19;;;;;;;23.30;16.58;;;3.00;91.50;;;;;;4895943;29;20476;-71
2021/01/15 08:08:59;;;;;;;188.50;23.38;;;3.00;91.40;;;;;;4895870;29;20640;-70
2021/01/15 08:11:25;;;;;;;21.83;16.83;;;3.10;91.30;;;;;;4896558;29;20367;-70
2021/01/15 08:14:12;;;;;;;28.10;17.63;;;3.20;91.20;;;;;;4896681;29;20029;-70
2021/01/15 08:16:40;;;;;;;24.15;17.25;;;3.20;91.20;;;;;;4896267;29;20144;-69
2021/01/15 08:19:11;;;;;;;22.17;15.98;;;3.20;91.10;;;;;;4895812;29;20061;-76
2021/01/15 08:21:37;;;;;;;22.85;17.40;;;3.20;90.90;;;;;;4897047;29;20119;-72
2021/01/15 08:24:06;;;;;;;21.00;16.42;;;3.30;90.80;;;;;;4895826;29;20080;-72
2021/01/15 08:26:56;;;;;;;22.20;16.13;;;3.30;90.80;;;;;;4896989;29;20108;-74
2021/01/15 08:29:28;;;;;;;26.27;17.63;;;3.40;90.80;;;;;;4894752;29;20096;-74
2021/01/15 08:32:00;;;;;;;;;;;3.50;90.70;;;;;;4880082;29;20431;-76
2021/01/15 08:34:33;;;;;;;21.92;15.60;;;3.60;90.60;;;;;;4896045;29;19915;-76
2021/01/15 08:37:00;;;;;;;22.90;16.50;;;3.70;90.70;;;;;;4895655;29;20052;-83
2021/01/15 08:39:26;;;;;;;23.10;16.30;;;3.80;90.30;;;;;;4896106;29;20538;-81
2021/01/15 08:41:59;;;;;;;22.23;16.95;;;3.80;90.10;;;;;;4896028;29;20041;-85
2021/01/15 08:44:34;;;;;;;26.38;16.83;;;3.80;89.90;;;;;;4895847;29;20063;-86
2021/01/15 08:47:03;;;;;;;22.45;16.88;;;3.80;90.00;;;;;;4879706;29;20393;-78
2021/01/15 08:49:29;;;;;;;25.77;18.70;;;3.90;90.00;;;;;;4879627;29;20027;-86
2021/01/15 08:51:58;;;;;;;22.90;17.08;;;3.90;90.00;;;;;;4895988;29;20107;-82
2021/01/15 08:54:25;;;;;;;21.63;16.55;;;3.90;89.70;;;;;;4895890;29;20068;-73
2021/01/15 08:56:51;;;;;;;21.73;16.52;;;3.90;89.70;;;;;;4895794;29;20040;-76
2021/01/15 08:59:27;;;;;;;21.63;16.90;;;3.90;89.60;;;;;;4874514;29;20044;-78
2021/01/15 09:01:58;;;;;;;138.95;20.88;;;3.90;89.50;;;;;;4875796;29;20562;-81
2021/01/15 09:04:29;;;;;;;18.80;14.38;;;3.90;89.60;;;;;;4869970;29;20084;-72
2021/01/15 09:06:56;;;;;;;20.40;14.45;;;3.90;89.70;;;;;;4858095;29;20093;-81
2021/01/15 09:09:24;;;;;;;17.40;14.25;;;3.90;89.70;;;;;;4877213;29;20027;-77
2021/01/15 09:11:52;;;;;;;17.20;13.93;;;3.80;89.50;;;;;;4896134;29;20500;-77
2021/01/15 09:14:24;;;;;;;17.98;13.63;;;3.80;89.70;;;;;;4879129;29;20112;-78
2021/01/15 09:16:54;;;;;;;19.40;14.38;;;3.80;89.90;;;;;;4879817;29;20033;-75
2021/01/15 09:19:21;;;;;;;18.33;13.63;;;3.90;90.00;;;;;;4895851;29;20028;-77
2021/01/15 09:21:48;;;;;;;17.08;13.50;;;3.90;89.60;;;;;;4879324;29;20044;-75
2021/01/15 09:24:15;;;;;;;20.50;14.15;;;3.90;89.90;;;;;;4879162;29;20028;-76
2021/01/15 09:26:42;;;;;;;19.20;14.18;;;3.90;89.90;;;;;;4878791;29;20028;-76
2021/01/15 09:29:07;;;;;;;17.55;12.70;;;3.90;89.00;;;;;;4895757;29;20043;-76
2021/01/15 09:31:33;;;;;;;17.45;13.60;;;3.90;89.20;;;;;;4896556;29;20017;-79
2021/01/15 09:33:59;;;;;;;44.08;13.75;;;3.80;89.20;;;;;;4879032;29;20040;-80
2021/01/15 09:36:35;;;;;;;17.33;12.23;;;3.80;89.30;;;;;;4878920;29;20041;-81
2021/01/15 09:39:01;;;;;;;16.33;12.68;;;3.80;89.50;;;;;;4845993;29;20041;-80
2021/01/15 09:41:26;;;;;;;18.50;13.07;;;3.80;89.20;;;;;;4874932;29;20040;-78
2021/01/15 09:43:55;;;;;;;15.50;12.57;;;3.90;89.20;;;;;;4879174;29;20052;-73
2021/01/15 09:46:26;;;;;;;18.38;13.18;;;3.90;89.20;;;;;;4878402;29;20037;-82
2021/01/15 09:48:54;;;;;;;17.80;12.93;;;3.90;88.70;;;;;;4837077;29;20137;-71
2021/01/15 09:51:22;;;;;;;18.60;13.38;;;3.90;88.50;;;;;;4873729;29;20033;-78
2021/01/15 09:53:47;;;;;;;20.63;13.55;;;3.90;89.30;;;;;;4864295;29;20052;-77
2021/01/15 09:56:34;;;;;;;19.08;13.55;;;3.90;89.90;;;;;;4878367;29;20438;-79
2021/01/15 09:59:01;;;;;;;16.75;12.52;;;3.80;89.20;;;;;;4878992;29;20079;-82
2021/01/15 10:01:28;;;;;;;15.95;12.27;;;3.80;89.00;;;;;;4877401;29;20064;-80
2021/01/15 10:03:57;;;;;;;18.20;14.20;;;3.80;89.00;;;;;;4878995;29;20092;-80
2021/01/15 10:06:24;;;;;;;18.27;12.68;;;3.90;89.70;;;;;;4878341;29;20795;-78
2021/01/15 10:08:50;;;;;;;17.52;11.90;;;3.90;89.00;;;;;;4877710;29;20051;-78
2021/01/15 10:11:24;;;;;;;14.98;12.23;;;3.90;88.70;;;;;;4895284;29;20060;-70
2021/01/15 10:13:52;;;;;;;17.48;12.20;;;4.00;88.30;;;;;;4895372;29;20032;-77
2021/01/15 10:16:18;;;;;;;15.85;12.02;;;4.10;88.00;;;;;;4877560;29;20071;-75
2021/01/15 10:18:44;;;;;;;17.58;11.90;;;4.10;87.50;;;;;;4895324;29;20056;-79
2021/01/15 10:21:09;;;;;;;17.67;13.23;;;4.10;87.20;;;;;;4894885;29;20043;-78
2021/01/15 10:23:36;;;;;;;261.45;24.80;;;4.20;87.30;;;;;;4877771;29;20024;-79
2021/01/15 10:26:02;;;;;;;17.25;13.20;;;4.10;86.90;;;;;;4878450;29;20079;-79
2021/01/15 10:28:28;;;;;;;15.70;12.38;;;4.00;87.20;;;;;;4894104;29;20040;-80
2021/01/15 10:30:54;;;;;;;15.93;11.77;;;4.10;87.10;;;;;;4878227;29;20044;-80
2021/01/15 10:33:23;;;;;;;14.23;12.40;;;4.10;87.10;;;;;;4878134;29;20029;-80
2021/01/15 10:35:49;;;;;;;14.02;11.15;;;4.10;86.50;;;;;;4877973;29;20552;-81
2021/01/15 10:38:15;;;;;;;15.75;12.38;;;4.10;86.00;;;;;;4877988;29;20024;-84
2021/01/15 10:40:42;;;;;;;16.20;11.90;;;4.10;85.90;;;;;;4878283;29;20688;-80
2021/01/15 10:43:08;;;;;;;112.22;17.05;;;4.10;86.20;;;;;;4877301;29;20029;-81
2021/01/15 10:45:33;;;;;;;15.40;11.90;;;4.10;85.80;;;;;;4878748;29;20040;-81
2021/01/15 10:47:59;;;;;;;16.75;12.65;;;4.00;86.10;;;;;;4877744;29;20075;-75
2021/01/15 10:50:24;;;;;;;17.35;12.85;;;4.10;86.00;;;;;;4893360;29;20363;-75
2021/01/15 10:52:53;;;;;;;14.32;11.27;;;4.20;85.60;;;;;;4895200;29;20032;-70
2021/01/15 10:55:19;;;;;;;17.10;12.18;;;4.20;85.50;;;;;;4877376;29;20037;-76
2021/01/15 10:57:45;;;;;;;14.43;11.88;;;4.20;85.40;;;;;;4894367;29;20029;-76
2021/01/15 11:00:12;;;;;;;14.07;11.25;;;4.20;84.70;;;;;;4877133;29;20032;-74
2021/01/15 11:02:38;;;;;;;13.27;11.57;;;4.20;84.50;;;;;;4894391;29;20043;-76
2021/01/15 11:05:06;;;;;;;15.55;12.20;;;4.20;84.30;;;;;;4893316;29;20021;-78
2021/01/15 11:07:31;;;;;;;15.10;11.25;;;4.20;84.70;;;;;;4878104;29;20187;-79
2021/01/15 11:09:57;;;;;;;12.43;9.70;;;4.20;84.00;;;;;;4877509;29;20037;-75
2021/01/15 11:12:22;;;;;;;17.98;12.40;;;4.10;83.90;;;;;;4893589;29;20108;-76
2021/01/15 11:14:48;;;;;;;13.38;11.20;;;4.10;83.90;;;;;;4877255;29;20111;-73
2021/01/15 11:17:13;;;;;;;18.50;11.93;;;4.10;84.00;;;;;;4877307;29;20068;-75
2021/01/15 11:19:39;;;;;;;14.65;11.43;;;4.10;84.10;;;;;;4893454;29;20139;-81
2021/01/15 11:22:04;;;;;;;15.25;11.73;;;4.20;84.00;;;;;;4876617;29;20028;-75
2021/01/15 11:24:30;;;;;;;14.10;10.15;;;4.30;83.90;;;;;;4893682;29;20375;-73
2021/01/15 11:26:56;;;;;;;14.55;11.18;;;4.30;84.10;;;;;;4875507;29;20028;-69
2021/01/15 11:29:21;;;;;;;16.98;13.15;;;4.30;83.40;;;;;;4893170;29;20429;-73
2021/01/15 11:31:47;;;;;;;17.50;12.20;;;4.30;83.40;;;;;;4892467;29;20033;-78
2021/01/15 11:34:13;;;;;;;14.13;11.10;;;4.20;83.20;;;;;;4876389;29;20032;-77
2021/01/15 11:36:39;;;;;;;13.82;10.85;;;4.20;83.60;;;;;;4893037;29;20084;-71
2021/01/15 11:39:09;;;;;;;14.75;11.32;;;4.20;83.60;;;;;;4892612;29;20456;-77
2021/01/15 11:41:35;;;;;;;14.88;11.02;;;4.10;83.40;;;;;;4877258;29;20064;-73
2021/01/15 11:44:00;;;;;;;14.07;11.30;;;4.10;83.20;;;;;;4876908;29;20517;-74
2021/01/15 11:46:26;;;;;;;15.43;11.32;;;4.10;83.90;;;;;;4876319;29;20029;-75
2021/01/15 11:48:52;;;;;;;15.07;12.07;;;4.10;83.90;;;;;;4893909;29;20115;-72
2021/01/15 11:51:17;;;;;;;15.65;11.18;;;4.20;83.80;;;;;;4860769;29;20523;-70
2021/01/15 11:53:43;;;;;;;18.30;12.63;;;4.20;84.10;;;;;;4876837;29;20061;-72
2021/01/15 11:56:09;;;;;;;19.35;13.98;;;4.10;84.50;;;;;;4876873;29;20119;-71
2021/01/15 11:58:36;;;;;;;17.10;12.10;;;4.10;83.60;;;;;;4894054;29;20099;-71
2021/01/15 12:01:02;;;;;;;15.48;11.98;;;4.00;83.80;;;;;;4892980;29;20367;-73
2021/01/15 12:03:28;;;;;;;16.50;11.88;;;4.00;84.20;;;;;;4893086;29;20035;-76
2021/01/15 12:05:54;;;;;;;13.65;11.35;;;4.00;84.60;;;;;;4893704;29;20041;-78
2021/01/15 12:08:20;;;;;;;16.23;12.95;;;4.00;84.70;;;;;;4876191;29;20068;-75
2021/01/15 12:10:55;;;;;;;15.35;12.13;;;4.00;85.10;;;;;;4893674;29;20080;-74
2021/01/15 12:13:25;;;;;;;21.17;13.60;;;3.90;84.50;;;;;;4893480;29;20071;-73
2021/01/15 12:15:55;;;;;;;17.25;14.27;;;3.80;85.30;;;;;;4892795;29;20111;-75
2021/01/15 12:18:21;;;;;;;20.95;13.80;;;3.70;85.90;;;;;;4876502;29;20115;-72
2021/01/15 12:20:47;;;;;;;18.67;12.82;;;3.70;85.80;;;;;;4893750;29;20044;-73
2021/01/15 12:23:14;;;;;;;57.70;15.82;;;3.70;85.70;;;;;;4875832;29;20029;-72
2021/01/15 12:25:40;;;;;;;19.50;13.65;;;3.70;86.30;;;;;;4894027;29;20085;-75
2021/01/15 12:28:10;;;;;;;20.67;14.65;;;3.70;86.60;;;;;;4875550;29;20649;-75
2021/01/15 12:30:36;;;;;;;18.17;13.65;;;3.70;86.30;;;;;;4876686;29;20052;-73
2021/01/15 12:33:06;;;;;;;18.00;13.05;;;3.80;86.10;;;;;;4893252;29;20034;-80
2021/01/15 12:35:32;;;;;;;16.60;13.77;;;3.90;86.00;;;;;;4876022;29;20045;-70
2021/01/15 12:38:09;;;;;;;22.60;15.48;;;3.90;86.10;;;;;;4893701;29;20438;-75
2021/01/15 12:40:35;;;;;;;16.90;13.30;;;4.00;86.20;;;;;;4886092;29;20290;-73
2021/01/15 12:43:05;;;;;;;20.00;15.35;;;4.00;86.30;;;;;;4876747;29;20481;-72
2021/01/15 12:45:35;;;;;;;18.80;14.38;;;4.00;86.50;;;;;;4879981;29;20040;-72
2021/01/15 12:48:01;;;;;;;17.33;13.02;;;4.00;86.10;;;;;;4896997;29;20093;-72
2021/01/15 12:50:27;;;;;;;43.92;16.75;;;4.00;86.50;;;;;;4895370;29;20032;-72
2021/01/15 12:52:53;;;;;;;18.40;13.75;;;4.00;86.40;;;;;;4896969;29;20036;-73